sensor_id;sensor_type;location;lat;lon;timestamp;P1;durP1;ratioP1;P2;durP2;ratioP2
65469;SDS011;52067;50.710;14.492;2023-11-19T00:01:45;51.80;;;21.25;;
65469;SDS011;52067;50.710;14.492;2023-11-19T00:04:12;38.83;;;15.98;;
65469;SDS011;52067;50.710;14.492;2023-11-19T00:06:37;26.67;;;12.95;;
65469;SDS011;52067;50.710;14.492;2023-11-19T00:09:03;23.50;;;11.82;;
65469;SDS011;52067;50.710;14.492;2023-11-19T00:11:29;24.65;;;11.63;;
65469;SDS011;52067;50.710;14.492;2023-11-19T00:13:54;24.25;;;11.85;;
65469;SDS011;52067;50.710;14.492;2023-11-19T00:16:20;25.38;;;11.82;;
65469;SDS011;52067;50.710;14.492;2023-11-19T00:18:45;20.27;;;11.40;;
65469;SDS011;52067;50.710;14.492;2023-11-19T00:21:10;24.08;;;11.82;;
65469;SDS011;52067;50.710;14.492;2023-11-19T00:23:36;21.70;;;11.15;;
65469;SDS011;52067;50.710;14.492;2023-11-19T00:26:01;24.35;;;11.30;;
65469;SDS011;52067;50.710;14.492;2023-11-19T00:28:27;21.88;;;11.25;;
65469;SDS011;52067;50.710;14.492;2023-11-19T00:30:53;21.83;;;11.13;;
65469;SDS011;52067;50.710;14.492;2023-11-19T00:33:19;21.77;;;10.57;;
65469;SDS011;52067;50.710;14.492;2023-11-19T00:35:44;22.50;;;11.43;;
65469;SDS011;52067;50.710;14.492;2023-11-19T00:38:10;18.80;;;10.20;;
65469;SDS011;52067;50.710;14.492;2023-11-19T00:40:35;23.77;;;11.75;;
65469;SDS011;52067;50.710;14.492;2023-11-19T00:43:00;22.80;;;10.98;;
65469;SDS011;52067;50.710;14.492;2023-11-19T00:45:26;23.40;;;12.35;;
65469;SDS011;52067;50.710;14.492;2023-11-19T00:47:52;23.85;;;11.13;;
65469;SDS011;52067;50.710;14.492;2023-11-19T00:50:17;23.35;;;11.30;;
65469;SDS011;52067;50.710;14.492;2023-11-19T00:52:43;23.20;;;10.85;;
65469;SDS011;52067;50.710;14.492;2023-11-19T00:55:08;23.95;;;11.98;;
65469;SDS011;52067;50.710;14.492;2023-11-19T00:57:35;22.17;;;11.00;;
65469;SDS011;52067;50.710;14.492;2023-11-19T01:00:00;23.35;;;11.55;;
65469;SDS011;52067;50.710;14.492;2023-11-19T01:02:26;23.40;;;11.63;;
65469;SDS011;52067;50.710;14.492;2023-11-19T01:04:51;21.85;;;10.15;;
65469;SDS011;52067;50.710;14.492;2023-11-19T01:07:17;20.02;;;10.07;;
65469;SDS011;52067;50.710;14.492;2023-11-19T01:09:42;19.15;;;10.68;;
65469;SDS011;52067;50.710;14.492;2023-11-19T01:12:08;22.35;;;11.32;;
65469;SDS011;52067;50.710;14.492;2023-11-19T01:14:36;22.30;;;11.10;;
65469;SDS011;52067;50.710;14.492;2023-11-19T01:17:02;25.15;;;11.35;;
65469;SDS011;52067;50.710;14.492;2023-11-19T01:19:27;22.17;;;11.40;;
65469;SDS011;52067;50.710;14.492;2023-11-19T01:21:53;23.25;;;11.35;;
65469;SDS011;52067;50.710;14.492;2023-11-19T01:24:19;20.35;;;10.85;;
65469;SDS011;52067;50.710;14.492;2023-11-19T01:26:45;26.25;;;11.32;;
65469;SDS011;52067;50.710;14.492;2023-11-19T01:29:11;24.48;;;11.80;;
65469;SDS011;52067;50.710;14.492;2023-11-19T01:31:39;19.92;;;11.50;;
65469;SDS011;52067;50.710;14.492;2023-11-19T01:34:05;22.58;;;10.98;;
65469;SDS011;52067;50.710;14.492;2023-11-19T01:36:30;22.00;;;11.20;;
65469;SDS011;52067;50.710;14.492;2023-11-19T01:38:56;23.83;;;12.07;;
65469;SDS011;52067;50.710;14.492;2023-11-19T01:41:21;26.25;;;11.90;;
65469;SDS011;52067;50.710;14.492;2023-11-19T01:43:47;22.27;;;11.23;;
65469;SDS011;52067;50.710;14.492;2023-11-19T01:46:12;21.70;;;11.98;;
65469;SDS011;52067;50.710;14.492;2023-11-19T01:48:40;22.95;;;11.85;;
65469;SDS011;52067;50.710;14.492;2023-11-19T01:51:07;22.00;;;11.68;;
65469;SDS011;52067;50.710;14.492;2023-11-19T01:53:33;23.63;;;10.15;;
65469;SDS011;52067;50.710;14.492;2023-11-19T01:56:01;26.02;;;11.60;;
65469;SDS011;52067;50.710;14.492;2023-11-19T01:58:28;25.27;;;11.50;;
65469;SDS011;52067;50.710;14.492;2023-11-19T02:00:55;24.05;;;11.27;;
65469;SDS011;52067;50.710;14.492;2023-11-19T02:03:21;27.25;;;12.07;;
65469;SDS011;52067;50.710;14.492;2023-11-19T02:05:48;24.63;;;12.10;;
65469;SDS011;52067;50.710;14.492;2023-11-19T02:08:14;23.08;;;11.98;;
65469;SDS011;52067;50.710;14.492;2023-11-19T02:10:39;19.60;;;9.95;;
65469;SDS011;52067;50.710;14.492;2023-11-19T02:13:05;21.73;;;10.95;;
65469;SDS011;52067;50.710;14.492;2023-11-19T02:15:32;23.40;;;10.43;;
65469;SDS011;52067;50.710;14.492;2023-11-19T02:18:16;21.88;;;11.05;;
65469;SDS011;52067;50.710;14.492;2023-11-19T02:20:43;24.60;;;11.37;;
65469;SDS011;52067;50.710;14.492;2023-11-19T02:23:08;25.42;;;10.70;;
65469;SDS011;52067;50.710;14.492;2023-11-19T02:25:34;22.05;;;10.65;;
65469;SDS011;52067;50.710;14.492;2023-11-19T02:28:00;28.52;;;12.35;;
65469;SDS011;52067;50.710;14.492;2023-11-19T02:30:27;24.65;;;13.02;;
65469;SDS011;52067;50.710;14.492;2023-11-19T02:32:56;22.45;;;12.30;;
65469;SDS011;52067;50.710;14.492;2023-11-19T02:35:22;23.83;;;12.13;;
65469;SDS011;52067;50.710;14.492;2023-11-19T02:37:48;27.05;;;12.55;;
65469;SDS011;52067;50.710;14.492;2023-11-19T02:40:14;26.83;;;12.43;;
65469;SDS011;52067;50.710;14.492;2023-11-19T02:42:39;24.90;;;12.25;;
65469;SDS011;52067;50.710;14.492;2023-11-19T02:45:05;23.52;;;11.25;;
65469;SDS011;52067;50.710;14.492;2023-11-19T02:47:32;24.17;;;12.93;;
65469;SDS011;52067;50.710;14.492;2023-11-19T02:49:58;25.63;;;12.40;;
65469;SDS011;52067;50.710;14.492;2023-11-19T02:52:24;22.83;;;12.07;;
65469;SDS011;52067;50.710;14.492;2023-11-19T02:54:50;21.70;;;11.57;;
65469;SDS011;52067;50.710;14.492;2023-11-19T02:57:15;21.17;;;10.30;;
65469;SDS011;52067;50.710;14.492;2023-11-19T02:59:44;22.52;;;11.60;;
65469;SDS011;52067;50.710;14.492;2023-11-19T03:02:09;22.77;;;11.93;;
65469;SDS011;52067;50.710;14.492;2023-11-19T03:04:36;26.63;;;13.10;;
65469;SDS011;52067;50.710;14.492;2023-11-19T03:07:06;27.10;;;12.88;;
65469;SDS011;52067;50.710;14.492;2023-11-19T03:09:34;22.55;;;10.88;;
65469;SDS011;52067;50.710;14.492;2023-11-19T03:12:00;23.33;;;12.95;;
65469;SDS011;52067;50.710;14.492;2023-11-19T03:14:26;24.92;;;12.43;;
65469;SDS011;52067;50.710;14.492;2023-11-19T03:16:52;24.60;;;12.65;;
65469;SDS011;52067;50.710;14.492;2023-11-19T03:19:17;28.40;;;13.57;;
65469;SDS011;52067;50.710;14.492;2023-11-19T03:21:43;29.58;;;13.00;;
65469;SDS011;52067;50.710;14.492;2023-11-19T03:24:09;26.58;;;12.60;;
65469;SDS011;52067;50.710;14.492;2023-11-19T03:26:35;26.95;;;12.73;;
65469;SDS011;52067;50.710;14.492;2023-11-19T03:29:02;24.52;;;12.80;;
65469;SDS011;52067;50.710;14.492;2023-11-19T03:31:27;28.25;;;14.05;;
65469;SDS011;52067;50.710;14.492;2023-11-19T03:33:53;27.80;;;13.75;;
65469;SDS011;52067;50.710;14.492;2023-11-19T03:36:19;26.80;;;14.00;;
65469;SDS011;52067;50.710;14.492;2023-11-19T03:38:44;25.63;;;13.20;;
65469;SDS011;52067;50.710;14.492;2023-11-19T03:41:10;27.02;;;13.00;;
65469;SDS011;52067;50.710;14.492;2023-11-19T03:43:39;28.80;;;14.30;;
65469;SDS011;52067;50.710;14.492;2023-11-19T03:46:05;24.98;;;12.77;;
65469;SDS011;52067;50.710;14.492;2023-11-19T03:48:41;28.13;;;13.70;;
65469;SDS011;52067;50.710;14.492;2023-11-19T03:51:06;29.85;;;14.60;;
65469;SDS011;52067;50.710;14.492;2023-11-19T03:53:32;25.73;;;13.80;;
65469;SDS011;52067;50.710;14.492;2023-11-19T03:55:57;29.08;;;13.60;;
65469;SDS011;52067;50.710;14.492;2023-11-19T03:58:22;30.52;;;14.60;;
65469;SDS011;52067;50.710;14.492;2023-11-19T04:00:48;32.70;;;15.02;;
65469;SDS011;52067;50.710;14.492;2023-11-19T04:03:13;28.77;;;14.07;;
65469;SDS011;52067;50.710;14.492;2023-11-19T04:05:39;28.45;;;14.75;;
65469;SDS011;52067;50.710;14.492;2023-11-19T04:08:04;27.08;;;13.93;;
65469;SDS011;52067;50.710;14.492;2023-11-19T04:10:30;28.10;;;14.50;;
65469;SDS011;52067;50.710;14.492;2023-11-19T04:12:55;26.05;;;14.07;;
65469;SDS011;52067;50.710;14.492;2023-11-19T04:15:21;29.23;;;14.48;;
65469;SDS011;52067;50.710;14.492;2023-11-19T04:17:47;31.88;;;14.02;;
65469;SDS011;52067;50.710;14.492;2023-11-19T04:20:12;28.67;;;13.93;;
65469;SDS011;52067;50.710;14.492;2023-11-19T04:22:38;31.52;;;15.50;;
65469;SDS011;52067;50.710;14.492;2023-11-19T04:25:04;27.92;;;12.98;;
65469;SDS011;52067;50.710;14.492;2023-11-19T04:27:30;23.75;;;13.05;;
65469;SDS011;52067;50.710;14.492;2023-11-19T04:29:55;23.77;;;13.30;;
65469;SDS011;52067;50.710;14.492;2023-11-19T04:32:21;22.33;;;12.32;;
65469;SDS011;52067;50.710;14.492;2023-11-19T04:34:46;22.55;;;11.73;;
65469;SDS011;52067;50.710;14.492;2023-11-19T04:37:12;23.13;;;12.10;;
65469;SDS011;52067;50.710;14.492;2023-11-19T04:39:37;26.73;;;13.07;;
65469;SDS011;52067;50.710;14.492;2023-11-19T04:42:03;22.08;;;12.60;;
65469;SDS011;52067;50.710;14.492;2023-11-19T04:44:29;25.05;;;13.23;;
65469;SDS011;52067;50.710;14.492;2023-11-19T04:46:55;25.42;;;11.85;;
65469;SDS011;52067;50.710;14.492;2023-11-19T04:49:20;26.67;;;12.65;;
65469;SDS011;52067;50.710;14.492;2023-11-19T04:51:46;23.33;;;12.63;;
65469;SDS011;52067;50.710;14.492;2023-11-19T04:54:16;24.42;;;12.10;;
65469;SDS011;52067;50.710;14.492;2023-11-19T04:56:44;20.35;;;11.13;;
65469;SDS011;52067;50.710;14.492;2023-11-19T04:59:10;24.25;;;13.15;;
65469;SDS011;52067;50.710;14.492;2023-11-19T05:01:36;23.27;;;11.57;;
65469;SDS011;52067;50.710;14.492;2023-11-19T05:04:01;20.02;;;11.15;;
65469;SDS011;52067;50.710;14.492;2023-11-19T05:06:30;18.00;;;10.23;;
65469;SDS011;52067;50.710;14.492;2023-11-19T05:08:59;19.42;;;9.93;;
65469;SDS011;52067;50.710;14.492;2023-11-19T05:11:34;16.17;;;8.80;;
65469;SDS011;52067;50.710;14.492;2023-11-19T05:14:02;15.23;;;7.80;;
65469;SDS011;52067;50.710;14.492;2023-11-19T05:16:29;18.27;;;9.55;;
65469;SDS011;52067;50.710;14.492;2023-11-19T05:18:54;17.23;;;9.65;;
65469;SDS011;52067;50.710;14.492;2023-11-19T05:21:20;17.25;;;9.35;;
65469;SDS011;52067;50.710;14.492;2023-11-19T05:23:45;17.08;;;9.48;;
65469;SDS011;52067;50.710;14.492;2023-11-19T05:26:21;19.35;;;10.13;;
65469;SDS011;52067;50.710;14.492;2023-11-19T05:28:48;18.23;;;9.95;;
65469;SDS011;52067;50.710;14.492;2023-11-19T05:31:13;20.20;;;9.95;;
65469;SDS011;52067;50.710;14.492;2023-11-19T05:33:39;16.95;;;9.60;;
65469;SDS011;52067;50.710;14.492;2023-11-19T05:36:05;18.30;;;8.73;;
65469;SDS011;52067;50.710;14.492;2023-11-19T05:38:33;16.92;;;7.97;;
65469;SDS011;52067;50.710;14.492;2023-11-19T05:40:58;17.63;;;8.70;;
65469;SDS011;52067;50.710;14.492;2023-11-19T05:43:24;14.80;;;8.02;;
65469;SDS011;52067;50.710;14.492;2023-11-19T05:45:49;15.35;;;9.05;;
65469;SDS011;52067;50.710;14.492;2023-11-19T05:48:15;16.80;;;9.15;;
65469;SDS011;52067;50.710;14.492;2023-11-19T05:50:41;19.75;;;8.68;;
65469;SDS011;52067;50.710;14.492;2023-11-19T05:53:07;15.13;;;8.38;;
65469;SDS011;52067;50.710;14.492;2023-11-19T05:55:35;15.38;;;8.50;;
65469;SDS011;52067;50.710;14.492;2023-11-19T05:58:11;18.40;;;9.55;;
65469;SDS011;52067;50.710;14.492;2023-11-19T06:00:37;16.00;;;9.45;;
65469;SDS011;52067;50.710;14.492;2023-11-19T06:03:04;14.50;;;8.55;;
65469;SDS011;52067;50.710;14.492;2023-11-19T06:05:30;15.25;;;8.05;;
65469;SDS011;52067;50.710;14.492;2023-11-19T06:07:55;15.48;;;8.93;;
65469;SDS011;52067;50.710;14.492;2023-11-19T06:10:22;21.60;;;10.00;;
65469;SDS011;52067;50.710;14.492;2023-11-19T06:12:53;16.15;;;9.25;;
65469;SDS011;52067;50.710;14.492;2023-11-19T06:15:21;15.05;;;7.72;;
65469;SDS011;52067;50.710;14.492;2023-11-19T06:17:46;16.73;;;9.25;;
65469;SDS011;52067;50.710;14.492;2023-11-19T06:20:12;16.33;;;9.00;;
65469;SDS011;52067;50.710;14.492;2023-11-19T06:22:39;17.00;;;9.05;;
65469;SDS011;52067;50.710;14.492;2023-11-19T06:25:05;20.40;;;9.93;;
65469;SDS011;52067;50.710;14.492;2023-11-19T06:27:32;22.92;;;11.43;;
65469;SDS011;52067;50.710;14.492;2023-11-19T06:29:57;15.80;;;8.43;;
65469;SDS011;52067;50.710;14.492;2023-11-19T06:32:23;17.90;;;10.00;;
65469;SDS011;52067;50.710;14.492;2023-11-19T06:34:49;17.13;;;8.85;;
65469;SDS011;52067;50.710;14.492;2023-11-19T06:37:14;17.40;;;9.13;;
65469;SDS011;52067;50.710;14.492;2023-11-19T06:39:40;23.10;;;11.20;;
65469;SDS011;52067;50.710;14.492;2023-11-19T06:42:05;22.25;;;10.75;;
65469;SDS011;52067;50.710;14.492;2023-11-19T06:44:31;17.83;;;9.77;;
65469;SDS011;52067;50.710;14.492;2023-11-19T06:46:56;15.25;;;8.68;;
65469;SDS011;52067;50.710;14.492;2023-11-19T06:49:22;20.45;;;9.35;;
65469;SDS011;52067;50.710;14.492;2023-11-19T06:51:48;14.95;;;8.63;;
65469;SDS011;52067;50.710;14.492;2023-11-19T06:54:13;16.65;;;9.02;;
65469;SDS011;52067;50.710;14.492;2023-11-19T06:56:38;15.82;;;8.98;;
65469;SDS011;52067;50.710;14.492;2023-11-19T06:59:04;16.45;;;9.48;;
65469;SDS011;52067;50.710;14.492;2023-11-19T07:01:34;15.38;;;8.80;;
65469;SDS011;52067;50.710;14.492;2023-11-19T07:04:01;14.27;;;8.38;;
65469;SDS011;52067;50.710;14.492;2023-11-19T07:06:32;12.15;;;7.18;;
65469;SDS011;52067;50.710;14.492;2023-11-19T07:08:58;16.23;;;8.27;;
65469;SDS011;52067;50.710;14.492;2023-11-19T07:11:24;14.70;;;7.88;;
65469;SDS011;52067;50.710;14.492;2023-11-19T07:13:49;11.80;;;7.18;;
65469;SDS011;52067;50.710;14.492;2023-11-19T07:16:15;13.52;;;7.97;;
65469;SDS011;52067;50.710;14.492;2023-11-19T07:18:40;14.48;;;7.40;;
65469;SDS011;52067;50.710;14.492;2023-11-19T07:21:08;12.43;;;6.80;;
65469;SDS011;52067;50.710;14.492;2023-11-19T07:23:35;13.10;;;7.80;;
65469;SDS011;52067;50.710;14.492;2023-11-19T07:26:01;15.48;;;8.30;;
65469;SDS011;52067;50.710;14.492;2023-11-19T07:28:26;14.50;;;8.05;;
65469;SDS011;52067;50.710;14.492;2023-11-19T07:30:53;15.60;;;8.30;;
65469;SDS011;52067;50.710;14.492;2023-11-19T07:33:21;14.93;;;8.10;;
65469;SDS011;52067;50.710;14.492;2023-11-19T07:35:46;11.25;;;6.93;;
65469;SDS011;52067;50.710;14.492;2023-11-19T07:38:12;12.90;;;7.07;;
65469;SDS011;52067;50.710;14.492;2023-11-19T07:40:38;13.10;;;7.25;;
65469;SDS011;52067;50.710;14.492;2023-11-19T07:43:03;12.73;;;7.88;;
65469;SDS011;52067;50.710;14.492;2023-11-19T07:45:29;13.50;;;7.38;;
65469;SDS011;52067;50.710;14.492;2023-11-19T07:47:54;12.85;;;7.97;;
65469;SDS011;52067;50.710;14.492;2023-11-19T07:50:19;11.60;;;7.05;;
65469;SDS011;52067;50.710;14.492;2023-11-19T07:52:45;14.25;;;7.85;;
65469;SDS011;52067;50.710;14.492;2023-11-19T07:55:10;14.25;;;8.05;;
65469;SDS011;52067;50.710;14.492;2023-11-19T07:57:36;14.23;;;7.43;;
65469;SDS011;52067;50.710;14.492;2023-11-19T08:00:02;15.02;;;8.15;;
65469;SDS011;52067;50.710;14.492;2023-11-19T08:02:29;14.23;;;8.05;;
65469;SDS011;52067;50.710;14.492;2023-11-19T08:04:58;13.95;;;8.15;;
65469;SDS011;52067;50.710;14.492;2023-11-19T08:07:23;17.27;;;8.35;;
65469;SDS011;52067;50.710;14.492;2023-11-19T08:09:48;12.82;;;7.43;;
65469;SDS011;52067;50.710;14.492;2023-11-19T08:12:14;14.00;;;8.38;;
65469;SDS011;52067;50.710;14.492;2023-11-19T08:14:41;15.02;;;7.90;;
65469;SDS011;52067;50.710;14.492;2023-11-19T08:17:06;14.60;;;8.40;;
65469;SDS011;52067;50.710;14.492;2023-11-19T08:19:31;11.23;;;7.28;;
65469;SDS011;52067;50.710;14.492;2023-11-19T08:21:57;13.77;;;7.30;;
65469;SDS011;52067;50.710;14.492;2023-11-19T08:24:22;11.93;;;6.55;;
65469;SDS011;52067;50.710;14.492;2023-11-19T08:26:48;11.63;;;7.68;;
65469;SDS011;52067;50.710;14.492;2023-11-19T08:29:13;12.38;;;7.15;;
65469;SDS011;52067;50.710;14.492;2023-11-19T08:31:39;12.45;;;6.82;;
65469;SDS011;52067;50.710;14.492;2023-11-19T08:34:04;13.85;;;7.07;;
65469;SDS011;52067;50.710;14.492;2023-11-19T08:36:33;12.30;;;7.25;;
65469;SDS011;52067;50.710;14.492;2023-11-19T08:38:59;11.07;;;6.72;;
65469;SDS011;52067;50.710;14.492;2023-11-19T08:41:24;12.10;;;7.20;;
65469;SDS011;52067;50.710;14.492;2023-11-19T08:43:50;13.20;;;7.30;;
65469;SDS011;52067;50.710;14.492;2023-11-19T08:46:16;11.13;;;6.47;;
65469;SDS011;52067;50.710;14.492;2023-11-19T08:48:42;12.32;;;7.25;;
65469;SDS011;52067;50.710;14.492;2023-11-19T08:51:07;12.05;;;6.90;;
65469;SDS011;52067;50.710;14.492;2023-11-19T08:53:33;12.93;;;7.47;;
65469;SDS011;52067;50.710;14.492;2023-11-19T08:55:59;12.02;;;6.45;;
65469;SDS011;52067;50.710;14.492;2023-11-19T08:58:26;13.35;;;8.77;;
65469;SDS011;52067;50.710;14.492;2023-11-19T09:00:52;14.93;;;7.70;;
65469;SDS011;52067;50.710;14.492;2023-11-19T09:03:17;12.55;;;7.43;;
65469;SDS011;52067;50.710;14.492;2023-11-19T09:05:43;10.52;;;6.03;;
65469;SDS011;52067;50.710;14.492;2023-11-19T09:08:08;12.63;;;6.53;;
65469;SDS011;52067;50.710;14.492;2023-11-19T09:10:34;10.43;;;6.65;;
65469;SDS011;52067;50.710;14.492;2023-11-19T09:12:59;11.35;;;6.72;;
65469;SDS011;52067;50.710;14.492;2023-11-19T09:15:24;11.75;;;6.70;;
65469;SDS011;52067;50.710;14.492;2023-11-19T09:17:50;14.98;;;8.20;;
65469;SDS011;52067;50.710;14.492;2023-11-19T09:20:15;18.63;;;9.18;;
65469;SDS011;52067;50.710;14.492;2023-11-19T09:22:41;13.68;;;7.50;;
65469;SDS011;52067;50.710;14.492;2023-11-19T09:25:07;13.93;;;7.25;;
65469;SDS011;52067;50.710;14.492;2023-11-19T09:27:33;11.20;;;6.68;;
65469;SDS011;52067;50.710;14.492;2023-11-19T09:29:58;23.25;;;10.35;;
65469;SDS011;52067;50.710;14.492;2023-11-19T09:32:24;14.70;;;7.88;;
65469;SDS011;52067;50.710;14.492;2023-11-19T09:34:49;25.20;;;12.10;;
65469;SDS011;52067;50.710;14.492;2023-11-19T09:37:15;14.05;;;8.32;;
65469;SDS011;52067;50.710;14.492;2023-11-19T09:39:40;13.73;;;7.82;;
65469;SDS011;52067;50.710;14.492;2023-11-19T09:42:08;11.85;;;7.22;;
65469;SDS011;52067;50.710;14.492;2023-11-19T09:44:35;13.20;;;7.70;;
65469;SDS011;52067;50.710;14.492;2023-11-19T09:47:03;13.63;;;7.68;;
65469;SDS011;52067;50.710;14.492;2023-11-19T09:49:30;12.77;;;7.85;;
65469;SDS011;52067;50.710;14.492;2023-11-19T09:51:55;25.98;;;12.18;;
65469;SDS011;52067;50.710;14.492;2023-11-19T09:54:21;11.98;;;7.18;;
65469;SDS011;52067;50.710;14.492;2023-11-19T09:56:46;13.68;;;8.38;;
65469;SDS011;52067;50.710;14.492;2023-11-19T09:59:12;10.00;;;6.07;;
65469;SDS011;52067;50.710;14.492;2023-11-19T10:01:38;15.82;;;8.25;;
65469;SDS011;52067;50.710;14.492;2023-11-19T10:04:05;15.95;;;8.45;;
65469;SDS011;52067;50.710;14.492;2023-11-19T10:06:32;16.02;;;8.80;;
65469;SDS011;52067;50.710;14.492;2023-11-19T10:08:57;8.75;;;5.60;;
65469;SDS011;52067;50.710;14.492;2023-11-19T10:11:24;11.50;;;6.28;;
65469;SDS011;52067;50.710;14.492;2023-11-19T10:13:49;13.10;;;7.10;;
65469;SDS011;52067;50.710;14.492;2023-11-19T10:16:17;13.38;;;6.82;;
65469;SDS011;52067;50.710;14.492;2023-11-19T10:18:44;20.15;;;9.43;;
65469;SDS011;52067;50.710;14.492;2023-11-19T10:21:15;15.25;;;7.65;;
65469;SDS011;52067;50.710;14.492;2023-11-19T10:23:49;14.23;;;7.18;;
65469;SDS011;52067;50.710;14.492;2023-11-19T10:26:17;15.05;;;7.20;;
65469;SDS011;52067;50.710;14.492;2023-11-19T10:28:43;10.93;;;5.93;;
65469;SDS011;52067;50.710;14.492;2023-11-19T10:31:11;16.83;;;9.02;;
65469;SDS011;52067;50.710;14.492;2023-11-19T10:33:40;13.45;;;6.78;;
65469;SDS011;52067;50.710;14.492;2023-11-19T10:36:05;14.80;;;7.97;;
65469;SDS011;52067;50.710;14.492;2023-11-19T10:38:31;11.45;;;6.82;;
65469;SDS011;52067;50.710;14.492;2023-11-19T10:40:57;15.80;;;7.47;;
65469;SDS011;52067;50.710;14.492;2023-11-19T10:43:24;25.95;;;8.98;;
65469;SDS011;52067;50.710;14.492;2023-11-19T10:45:49;50.35;;;19.30;;
65469;SDS011;52067;50.710;14.492;2023-11-19T10:48:15;44.83;;;16.85;;
65469;SDS011;52067;50.710;14.492;2023-11-19T10:50:41;39.13;;;17.13;;
65469;SDS011;52067;50.710;14.492;2023-11-19T10:53:09;12.38;;;7.13;;
65469;SDS011;52067;50.710;14.492;2023-11-19T10:55:38;14.23;;;7.20;;
65469;SDS011;52067;50.710;14.492;2023-11-19T10:58:09;12.65;;;7.43;;
65469;SDS011;52067;50.710;14.492;2023-11-19T11:00:39;22.85;;;9.68;;
65469;SDS011;52067;50.710;14.492;2023-11-19T11:03:25;19.05;;;10.18;;
65469;SDS011;52067;50.710;14.492;2023-11-19T11:05:55;25.65;;;11.55;;
65469;SDS011;52067;50.710;14.492;2023-11-19T11:08:21;13.25;;;7.03;;
65469;SDS011;52067;50.710;14.492;2023-11-19T11:10:56;14.45;;;7.57;;
65469;SDS011;52067;50.710;14.492;2023-11-19T11:13:23;10.48;;;6.55;;
65469;SDS011;52067;50.710;14.492;2023-11-19T11:15:50;16.25;;;9.23;;
65469;SDS011;52067;50.710;14.492;2023-11-19T11:18:16;19.58;;;10.85;;
65469;SDS011;52067;50.710;14.492;2023-11-19T11:20:45;17.38;;;9.02;;
65469;SDS011;52067;50.710;14.492;2023-11-19T11:29:05;11.75;;;5.40;;
65469;SDS011;52067;50.710;14.492;2023-11-19T11:31:52;12.48;;;7.75;;
65469;SDS011;52067;50.710;14.492;2023-11-19T11:37:36;16.98;;;9.55;;
65469;SDS011;52067;50.710;14.492;2023-11-19T11:40:13;11.52;;;7.30;;
65469;SDS011;52067;50.710;14.492;2023-11-19T11:42:41;13.32;;;7.38;;
65469;SDS011;52067;50.710;14.492;2023-11-19T11:50:14;25.85;;;13.05;;
65469;SDS011;52067;50.710;14.492;2023-11-19T11:58:12;16.02;;;9.05;;
65469;SDS011;52067;50.710;14.492;2023-11-19T12:00:40;16.42;;;8.95;;
65469;SDS011;52067;50.710;14.492;2023-11-19T12:03:07;15.82;;;9.43;;
65469;SDS011;52067;50.710;14.492;2023-11-19T12:05:35;18.27;;;10.02;;
65469;SDS011;52067;50.710;14.492;2023-11-19T12:08:05;18.00;;;10.52;;
65469;SDS011;52067;50.710;14.492;2023-11-19T12:10:38;21.23;;;10.98;;
65469;SDS011;52067;50.710;14.492;2023-11-19T12:13:13;15.00;;;8.90;;
65469;SDS011;52067;50.710;14.492;2023-11-19T12:18:29;21.10;;;11.48;;
65469;SDS011;52067;50.710;14.492;2023-11-19T12:20:58;15.27;;;8.20;;
65469;SDS011;52067;50.710;14.492;2023-11-19T12:23:26;18.80;;;9.45;;
65469;SDS011;52067;50.710;14.492;2023-11-19T12:25:51;19.40;;;9.85;;
65469;SDS011;52067;50.710;14.492;2023-11-19T12:28:17;19.65;;;10.57;;
65469;SDS011;52067;50.710;14.492;2023-11-19T12:30:44;31.77;;;15.07;;
65469;SDS011;52067;50.710;14.492;2023-11-19T12:33:10;17.88;;;9.57;;
65469;SDS011;52067;50.710;14.492;2023-11-19T12:35:39;20.50;;;10.82;;
65469;SDS011;52067;50.710;14.492;2023-11-19T12:38:05;19.30;;;10.20;;
65469;SDS011;52067;50.710;14.492;2023-11-19T12:40:31;24.40;;;11.52;;
65469;SDS011;52067;50.710;14.492;2023-11-19T12:42:56;19.77;;;9.95;;
65469;SDS011;52067;50.710;14.492;2023-11-19T12:45:22;17.67;;;9.18;;
65469;SDS011;52067;50.710;14.492;2023-11-19T12:48:03;19.60;;;8.57;;
65469;SDS011;52067;50.710;14.492;2023-11-19T12:53:22;16.13;;;8.07;;
65469;SDS011;52067;50.710;14.492;2023-11-19T12:55:49;22.75;;;10.88;;
65469;SDS011;52067;50.710;14.492;2023-11-19T12:58:29;17.60;;;9.50;;
65469;SDS011;52067;50.710;14.492;2023-11-19T13:01:06;17.40;;;9.68;;
65469;SDS011;52067;50.710;14.492;2023-11-19T13:03:36;17.48;;;9.23;;
65469;SDS011;52067;50.710;14.492;2023-11-19T13:08:43;17.50;;;9.60;;
65469;SDS011;52067;50.710;14.492;2023-11-19T13:11:30;16.83;;;9.25;;
65469;SDS011;52067;50.710;14.492;2023-11-19T13:13:59;29.95;;;13.00;;
65469;SDS011;52067;50.710;14.492;2023-11-19T13:16:27;39.75;;;14.93;;
65469;SDS011;52067;50.710;14.492;2023-11-19T13:18:53;22.17;;;10.27;;
65469;SDS011;52067;50.710;14.492;2023-11-19T13:21:35;18.65;;;9.43;;
65469;SDS011;52067;50.710;14.492;2023-11-19T13:24:00;23.02;;;9.70;;
65469;SDS011;52067;50.710;14.492;2023-11-19T13:26:25;16.60;;;8.90;;
65469;SDS011;52067;50.710;14.492;2023-11-19T13:28:51;16.85;;;9.40;;
65469;SDS011;52067;50.710;14.492;2023-11-19T13:31:16;15.70;;;9.27;;
65469;SDS011;52067;50.710;14.492;2023-11-19T13:33:42;17.38;;;9.25;;
65469;SDS011;52067;50.710;14.492;2023-11-19T13:36:08;18.83;;;9.55;;
65469;SDS011;52067;50.710;14.492;2023-11-19T13:38:36;17.45;;;10.30;;
65469;SDS011;52067;50.710;14.492;2023-11-19T13:41:04;19.60;;;10.10;;
65469;SDS011;52067;50.710;14.492;2023-11-19T13:43:30;17.63;;;10.40;;
65469;SDS011;52067;50.710;14.492;2023-11-19T13:45:55;22.35;;;12.00;;
65469;SDS011;52067;50.710;14.492;2023-11-19T13:48:21;26.65;;;13.50;;
65469;SDS011;52067;50.710;14.492;2023-11-19T13:50:47;28.02;;;13.48;;
65469;SDS011;52067;50.710;14.492;2023-11-19T13:53:12;27.92;;;13.95;;
65469;SDS011;52067;50.710;14.492;2023-11-19T13:55:38;24.38;;;12.15;;
65469;SDS011;52067;50.710;14.492;2023-11-19T13:58:03;21.17;;;11.32;;
65469;SDS011;52067;50.710;14.492;2023-11-19T14:00:29;27.67;;;13.02;;
65469;SDS011;52067;50.710;14.492;2023-11-19T14:02:54;28.33;;;13.15;;
65469;SDS011;52067;50.710;14.492;2023-11-19T14:05:19;24.10;;;12.77;;
65469;SDS011;52067;50.710;14.492;2023-11-19T14:07:45;23.25;;;12.38;;
65469;SDS011;52067;50.710;14.492;2023-11-19T14:10:14;27.92;;;13.45;;
65469;SDS011;52067;50.710;14.492;2023-11-19T14:12:40;27.77;;;14.10;;
65469;SDS011;52067;50.710;14.492;2023-11-19T14:15:06;21.17;;;11.05;;
65469;SDS011;52067;50.710;14.492;2023-11-19T14:17:34;24.73;;;12.38;;
65469;SDS011;52067;50.710;14.492;2023-11-19T14:20:00;27.15;;;11.75;;
65469;SDS011;52067;50.710;14.492;2023-11-19T14:22:25;27.55;;;13.27;;
65469;SDS011;52067;50.710;14.492;2023-11-19T14:24:52;23.65;;;11.82;;
65469;SDS011;52067;50.710;14.492;2023-11-19T14:27:17;24.30;;;12.30;;
65469;SDS011;52067;50.710;14.492;2023-11-19T14:29:43;33.45;;;14.18;;
65469;SDS011;52067;50.710;14.492;2023-11-19T14:32:10;25.08;;;13.05;;
65469;SDS011;52067;50.710;14.492;2023-11-19T14:34:35;24.15;;;12.05;;
65469;SDS011;52067;50.710;14.492;2023-11-19T14:37:01;36.50;;;17.73;;
65469;SDS011;52067;50.710;14.492;2023-11-19T14:39:26;33.42;;;15.60;;
65469;SDS011;52067;50.710;14.492;2023-11-19T14:41:52;56.15;;;24.83;;